Time;durP1;ratioP1;P1;durP2;ratioP2;P2;SDS_P1;SDS_P2;PMS_P1;PMS_P2;Temp;Humidity;BMP_temperature;BMP_pressure;BME280_temperature;BME280_humidity;BME280_pressure;Samples;Min_cycle;Max_cycle;Signal;HPM_P1;HPM_P2
2023/04/15 02:00:44;;;;;;;8.75;5.37;;;;;;;;;;4825296;28;20080;-72
2023/04/15 02:03:10;;;;;;;7.80;5.82;;;;;;;;;;4265298;33;20084;-73
2023/04/15 02:05:36;;;;;;;7.12;5.07;;;;;;;;;;4266289;33;20092;-73
2023/04/15 02:08:03;;;;;;;8.15;5.45;;;;;;;;;;4266766;33;20072;-73
2023/04/15 02:10:30;;;;;;;6.68;5.32;;;;;;;;;;4264722;33;20053;-73
2023/04/15 02:12:56;;;;;;;11.68;5.72;;;;;;;;;;4266947;33;20081;-72
2023/04/15 02:15:22;;;;;;;8.15;5.85;;;;;;;;;;4269648;33;20408;-73
2023/04/15 02:17:51;;;;;;;11.32;6.15;;;;;;;;;;4269496;33;20058;-73
2023/04/15 02:20:18;;;;;;;11.80;7.30;;;;;;;;;;4268368;33;20092;-74
2023/04/15 02:22:44;;;;;;;10.48;6.35;;;;;;;;;;4269021;33;20049;-74
2023/04/15 02:25:10;;;;;;;11.73;6.05;;;;;;;;;;4269450;33;20042;-73
2023/04/15 02:27:37;;;;;;;9.02;5.80;;;;;;;;;;4265153;33;20091;-73
2023/04/15 02:30:03;;;;;;;7.00;5.47;;;;;;;;;;4266591;33;20050;-73
2023/04/15 02:32:29;;;;;;;10.55;6.22;;;;;;;;;;4265490;33;20071;-75
2023/04/15 02:34:55;;;;;;;7.65;5.70;;;;;;;;;;4266062;33;20376;-73
2023/04/15 02:37:23;;;;;;;8.50;5.75;;;;;;;;;;4266150;33;20046;-73
2023/04/15 02:39:49;;;;;;;8.07;5.93;;;;;;;;;;4267264;33;20042;-73
2023/04/15 02:42:15;;;;;;;8.07;5.68;;;;;;;;;;4264963;33;21003;-74
2023/04/15 02:44:42;;;;;;;9.90;7.00;;;;;;;;;;4264767;33;20037;-74
2023/04/15 02:47:10;;;;;;;9.60;6.57;;;;;;;;;;4253437;33;20076;-73
2023/04/15 02:49:36;;;;;;;8.20;6.78;;;;;;;;;;4251927;33;20085;-73
2023/04/15 02:52:03;;;;;;;8.00;6.30;;;;;;;;;;4264349;33;20034;-73
2023/04/15 02:54:29;;;;;;;8.65;6.50;;;;;;;;;;4265037;33;20548;-73
2023/04/15 02:56:58;;;;;;;10.32;6.95;;;;;;;;;;4253240;33;20448;-74
2023/04/15 02:59:24;;;;;;;8.75;7.10;;;;;;;;;;4252307;33;20889;-74
2023/04/15 03:01:50;;;;;;;10.20;7.57;;;;;;;;;;4251829;33;20443;-74
2023/04/15 03:04:23;;;;;;;11.27;6.72;;;;;;;;;;4252400;33;20177;-74
2023/04/15 03:06:55;;;;;;;8.52;6.80;;;;;;;;;;4267550;33;20064;-74
2023/04/15 03:09:22;;;;;;;10.32;7.32;;;;;;;;;;4266674;33;20080;-74
2023/04/15 03:11:49;;;;;;;7.75;6.28;;;;;;;;;;4265583;33;20063;-73
2023/04/15 03:14:21;;;;;;;8.52;7.10;;;;;;;;;;4251365;33;20447;-75
2023/04/15 03:16:49;;;;;;;8.57;6.53;;;;;;;;;;4251963;33;20121;-74
2023/04/15 03:19:15;;;;;;;7.18;6.07;;;;;;;;;;4250749;33;20132;-74
2023/04/15 03:21:42;;;;;;;13.35;7.93;;;;;;;;;;4250413;33;20060;-73
2023/04/15 03:24:08;;;;;;;7.72;6.62;;;;;;;;;;4251098;33;20084;-75
2023/04/15 03:26:35;;;;;;;8.20;7.12;;;;;;;;;;4207325;34;20173;-74
2023/04/15 03:29:01;;;;;;;12.07;6.53;;;;;;;;;;4209691;34;20035;-74
2023/04/15 03:31:27;;;;;;;10.52;6.65;;;;;;;;;;4209715;34;20152;-73
2023/04/15 03:33:53;;;;;;;9.32;6.32;;;;;;;;;;4208537;34;20177;-73
2023/04/15 03:36:20;;;;;;;8.30;6.65;;;;;;;;;;4208481;34;20061;-76
2023/04/15 03:38:46;;;;;;;9.35;6.60;;;;;;;;;;4209772;34;20084;-73
2023/04/15 03:41:19;;;;;;;9.00;6.40;;;;;;;;;;4209148;34;20366;-73
2023/04/15 03:43:45;;;;;;;9.93;6.55;;;;;;;;;;4209034;34;20102;-73
2023/04/15 03:46:11;;;;;;;7.75;5.95;;;;;;;;;;4202696;34;20078;-74
2023/04/15 03:48:37;;;;;;;8.35;6.72;;;;;;;;;;4209518;34;20094;-73
2023/04/15 03:51:03;;;;;;;8.35;6.40;;;;;;;;;;4220882;34;20061;-72
2023/04/15 03:53:29;;;;;;;10.57;6.53;;;;;;;;;;4223471;34;20093;-74
2023/04/15 03:55:56;;;;;;;10.52;6.37;;;;;;;;;;4223553;34;20471;-73
2023/04/15 03:58:22;;;;;;;12.85;6.28;;;;;;;;;;4244863;33;20031;-73
2023/04/15 04:00:48;;;;;;;8.73;6.10;;;;;;;;;;4238809;33;20061;-74
2023/04/15 04:03:14;;;;;;;7.57;5.90;;;;;;;;;;4239875;33;20049;-74
2023/04/15 04:05:41;;;;;;;8.43;6.50;;;;;;;;;;4252231;33;20529;-74
2023/04/15 04:08:06;;;;;;;9.77;6.43;;;;;;;;;;4237874;33;20038;-73
2023/04/15 04:10:33;;;;;;;9.68;6.93;;;;;;;;;;4235900;33;20076;-75
2023/04/15 04:13:00;;;;;;;8.55;6.97;;;;;;;;;;4209158;34;20067;-73
2023/04/15 04:15:26;;;;;;;8.40;6.07;;;;;;;;;;4209750;34;20059;-74
2023/04/15 04:17:52;;;;;;;9.95;6.97;;;;;;;;;;4209258;34;20062;-74
2023/04/15 04:20:18;;;;;;;9.00;6.65;;;;;;;;;;4209501;34;20059;-73
2023/04/15 04:22:44;;;;;;;8.68;6.55;;;;;;;;;;4208070;34;20095;-74
2023/04/15 04:25:11;;;;;;;10.93;7.18;;;;;;;;;;4209957;34;20885;-74
2023/04/15 04:27:37;;;;;;;7.32;6.20;;;;;;;;;;4208770;34;20058;-73
2023/04/15 04:30:04;;;;;;;8.68;6.32;;;;;;;;;;4209693;34;20058;-73
2023/04/15 04:32:30;;;;;;;9.05;7.22;;;;;;;;;;4209280;34;20051;-73
2023/04/15 04:34:56;;;;;;;10.68;6.95;;;;;;;;;;4206053;34;20052;-74
2023/04/15 04:37:23;;;;;;;10.52;7.55;;;;;;;;;;4207978;34;20478;-74
2023/04/15 04:39:50;;;;;;;7.30;5.93;;;;;;;;;;4219997;34;20046;-73
2023/04/15 04:42:15;;;;;;;10.15;6.97;;;;;;;;;;4222172;34;20488;-73
2023/04/15 04:44:42;;;;;;;7.10;5.72;;;;;;;;;;4253825;33;20076;-74
2023/04/15 04:47:08;;;;;;;9.00;6.10;;;;;;;;;;4262347;33;20060;-73
2023/04/15 04:49:35;;;;;;;7.80;5.75;;;;;;;;;;4249477;33;20065;-73
2023/04/15 04:52:01;;;;;;;7.40;5.87;;;;;;;;;;4243621;33;20095;-73
2023/04/15 04:54:29;;;;;;;8.57;6.12;;;;;;;;;;4235583;33;20161;-72
2023/04/15 04:56:56;;;;;;;7.03;6.10;;;;;;;;;;4235900;33;20042;-74
2023/04/15 04:59:23;;;;;;;8.75;5.55;;;;;;;;;;4236164;33;20058;-73
2023/04/15 05:01:49;;;;;;;8.15;5.70;;;;;;;;;;4222300;33;20478;-73
2023/04/15 05:04:15;;;;;;;7.60;6.10;;;;;;;;;;4250231;33;20514;-73
2023/04/15 05:06:41;;;;;;;8.27;6.30;;;;;;;;;;4250924;33;20406;-74
2023/04/15 05:09:08;;;;;;;7.10;5.55;;;;;;;;;;4260955;33;20053;-73
2023/04/15 05:11:34;;;;;;;10.63;5.57;;;;;;;;;;4264863;33;20053;-73
2023/04/15 05:14:01;;;;;;;6.93;5.32;;;;;;;;;;4235801;33;20157;-74
2023/04/15 05:16:27;;;;;;;8.25;5.30;;;;;;;;;;4235278;33;20066;-74
2023/04/15 05:18:53;;;;;;;9.05;6.32;;;;;;;;;;4233257;33;20462;-76
2023/04/15 05:21:19;;;;;;;8.23;6.05;;;;;;;;;;4245419;33;20086;-75
2023/04/15 05:23:46;;;;;;;7.57;5.60;;;;;;;;;;4249567;33;20354;-74
2023/04/15 05:26:12;;;;;;;8.20;5.70;;;;;;;;;;4250465;33;20455;-74
2023/04/15 05:28:38;;;;;;;12.85;6.28;;;;;;;;;;4249839;33;20423;-74
2023/04/15 05:31:04;;;;;;;12.63;6.32;;;;;;;;;;4249137;33;20068;-73
2023/04/15 05:33:31;;;;;;;7.25;5.03;;;;;;;;;;4250065;33;20503;-73
2023/04/15 05:35:56;;;;;;;7.87;5.90;;;;;;;;;;4239489;33;20067;-74
2023/04/15 05:38:23;;;;;;;7.32;5.50;;;;;;;;;;4246319;33;20046;-73
2023/04/15 05:40:49;;;;;;;5.55;5.05;;;;;;;;;;4224791;33;20027;-73
2023/04/15 05:43:15;;;;;;;5.93;5.00;;;;;;;;;;4220592;33;20107;-76
2023/04/15 05:45:42;;;;;;;9.90;4.78;;;;;;;;;;4229170;33;20072;-73
2023/04/15 05:48:08;;;;;;;5.10;4.50;;;;;;;;;;4222264;34;20074;-73
2023/04/15 05:50:34;;;;;;;5.97;5.28;;;;;;;;;;4224068;33;20042;-73
2023/04/15 05:53:01;;;;;;;5.35;4.43;;;;;;;;;;4236056;33;20063;-73
2023/04/15 05:55:27;;;;;;;6.35;5.15;;;;;;;;;;4220884;34;20089;-75
2023/04/15 05:57:53;;;;;;;5.60;5.10;;;;;;;;;;4220116;34;20051;-73
2023/04/15 06:00:20;;;;;;;6.53;5.05;;;;;;;;;;4221041;34;20031;-73
2023/04/15 06:02:46;;;;;;;8.80;4.60;;;;;;;;;;4206679;34;20456;-74
2023/04/15 06:05:12;;;;;;;5.97;5.15;;;;;;;;;;4207619;34;20043;-75
2023/04/15 06:07:38;;;;;;;6.72;4.85;;;;;;;;;;4215747;34;20080;-74
2023/04/15 06:10:05;;;;;;;5.37;4.85;;;;;;;;;;4221144;34;20161;-74
2023/04/15 06:12:31;;;;;;;5.80;4.85;;;;;;;;;;4192721;34;20066;-74
2023/04/15 06:14:57;;;;;;;6.32;5.12;;;;;;;;;;4193207;34;20085;-75
2023/04/15 06:17:24;;;;;;;5.95;4.05;;;;;;;;;;4191813;34;20060;-75
2023/04/15 06:19:54;;;;;;;4.97;4.50;;;;;;;;;;4192023;34;20039;-74
2023/04/15 06:22:21;;;;;;;5.78;4.97;;;;;;;;;;4192592;34;20070;-74
2023/04/15 06:24:51;;;;;;;5.50;4.60;;;;;;;;;;4193595;34;20119;-74
2023/04/15 06:27:17;;;;;;;5.20;4.20;;;;;;;;;;4204211;34;20090;-72
2023/04/15 06:29:43;;;;;;;5.65;4.70;;;;;;;;;;4209498;34;20474;-75
2023/04/15 06:32:10;;;;;;;5.65;4.60;;;;;;;;;;4206922;34;20431;-75
2023/04/15 06:34:36;;;;;;;6.43;4.80;;;;;;;;;;4206625;34;20438;-73
2023/04/15 06:37:02;;;;;;;6.20;4.93;;;;;;;;;;4203227;34;20161;-74
2023/04/15 06:39:29;;;;;;;6.15;4.68;;;;;;;;;;4196107;34;20760;-72
2023/04/15 06:41:55;;;;;;;7.68;5.03;;;;;;;;;;4206001;34;20039;-72
2023/04/15 06:44:21;;;;;;;9.98;4.75;;;;;;;;;;4207931;34;20068;-73
2023/04/15 06:46:48;;;;;;;7.35;5.20;;;;;;;;;;4206274;34;20062;-73
2023/04/15 06:49:20;;;;;;;;;;;;;;;;;;4207166;34;20096;-74
2023/04/15 06:51:46;;;;;;;6.57;5.55;;;;;;;;;;4203692;34;20391;-75
2023/04/15 06:54:13;;;;;;;7.07;5.18;;;;;;;;;;4194593;34;20138;-73
2023/04/15 06:56:39;;;;;;;9.10;5.10;;;;;;;;;;4214276;34;20061;-74
2023/04/15 06:59:05;;;;;;;5.22;4.65;;;;;;;;;;4222133;33;20415;-74
2023/04/15 07:01:32;;;;;;;7.65;5.85;;;;;;;;;;4223254;34;20054;-73
2023/04/15 07:03:58;;;;;;;10.07;5.80;;;;;;;;;;4206806;34;20074;-74
2023/04/15 07:06:24;;;;;;;8.10;5.82;;;;;;;;;;4207862;34;20272;-74
2023/04/15 07:08:51;;;;;;;10.00;4.82;;;;;;;;;;4220374;34;20039;-75
2023/04/15 07:11:17;;;;;;;10.57;5.05;;;;;;;;;;4223269;34;20594;-73
2023/04/15 07:13:43;;;;;;;5.37;4.87;;;;;;;;;;4210387;34;20028;-73
2023/04/15 07:16:09;;;;;;;8.80;5.72;;;;;;;;;;4207470;34;20051;-73
2023/04/15 07:18:35;;;;;;;5.87;5.20;;;;;;;;;;4209384;34;20268;-72
2023/04/15 07:21:01;;;;;;;11.27;5.80;;;;;;;;;;4208153;34;20575;-74
2023/04/15 07:23:28;;;;;;;7.00;5.35;;;;;;;;;;4209448;34;20036;-73
2023/04/15 07:25:54;;;;;;;6.45;5.32;;;;;;;;;;4206950;34;20058;-78
2023/04/15 07:28:20;;;;;;;7.15;5.12;;;;;;;;;;4208350;34;20218;-74
2023/04/15 07:30:47;;;;;;;7.25;5.28;;;;;;;;;;4213309;33;20047;-75
2023/04/15 07:33:13;;;;;;;8.15;4.97;;;;;;;;;;4249570;33;20385;-73
2023/04/15 07:35:39;;;;;;;5.97;5.15;;;;;;;;;;4250853;33;20091;-73
2023/04/15 07:38:05;;;;;;;7.37;4.80;;;;;;;;;;4274012;33;20041;-74
2023/04/15 07:40:32;;;;;;;6.50;4.97;;;;;;;;;;4293636;33;20800;-72
2023/04/15 07:42:57;;;;;;;5.45;4.82;;;;;;;;;;4272517;33;20125;-73
2023/04/15 07:45:24;;;;;;;5.53;4.75;;;;;;;;;;4266823;33;20050;-77
2023/04/15 07:47:50;;;;;;;8.10;5.28;;;;;;;;;;4266091;33;20030;-74
2023/04/15 07:50:17;;;;;;;6.72;5.28;;;;;;;;;;4270602;33;20061;-75
2023/04/15 07:52:43;;;;;;;7.95;5.60;;;;;;;;;;4273287;33;20802;-74
2023/04/15 07:55:09;;;;;;;7.93;5.60;;;;;;;;;;4271856;33;20077;-71
2023/04/15 07:57:35;;;;;;;8.82;5.65;;;;;;;;;;4262682;33;20110;-74
2023/04/15 08:00:05;;;;;;;10.00;6.97;;;;;;;;;;4259094;33;20053;-73
2023/04/15 08:02:38;;;;;;;10.30;7.22;;;;;;;;;;4261593;33;20054;-74
2023/04/15 08:05:06;;;;;;;11.35;6.72;;;;;;;;;;4248242;33;20549;-75
2023/04/15 08:07:32;;;;;;;8.48;6.85;;;;;;;;;;4248690;33;20058;-74
2023/04/15 08:09:58;;;;;;;8.50;6.62;;;;;;;;;;4248125;33;20197;-72
2023/04/15 08:12:25;;;;;;;10.05;6.85;;;;;;;;;;4247590;33;20117;-74
2023/04/15 08:14:51;;;;;;;11.02;7.20;;;;;;;;;;4230866;33;20501;-72
2023/04/15 08:17:17;;;;;;;11.18;7.05;;;;;;;;;;4209901;34;20120;-73
2023/04/15 08:19:43;;;;;;;12.45;7.60;;;;;;;;;;4221714;33;20076;-71
2023/04/15 08:22:11;;;;;;;10.85;7.43;;;;;;;;;;4221300;33;20066;-78
2023/04/15 08:24:37;;;;;;;11.32;7.82;;;;;;;;;;4215976;34;20072;-73
2023/04/15 08:27:07;;;;;;;14.87;7.57;;;;;;;;;;4215506;34;20058;-72
2023/04/15 08:29:34;;;;;;;11.60;8.60;;;;;;;;;;4178583;34;20040;-74
2023/04/15 08:32:02;;;;;;;14.07;8.05;;;;;;;;;;4178359;34;20040;-71
2023/04/15 08:34:29;;;;;;;11.43;7.87;;;;;;;;;;4177807;34;20534;-76
2023/04/15 08:36:55;;;;;;;12.30;7.80;;;;;;;;;;4191070;34;20073;-74
2023/04/15 08:39:21;;;;;;;11.95;7.70;;;;;;;;;;4199972;34;20046;-73
2023/04/15 08:41:55;;;;;;;12.88;8.15;;;;;;;;;;4190795;34;20075;-72
2023/04/15 08:44:22;;;;;;;12.85;7.05;;;;;;;;;;4186213;34;20493;-76
2023/04/15 08:46:49;;;;;;;13.62;9.27;;;;;;;;;;4198820;34;21059;-73
2023/04/15 08:49:16;;;;;;;11.40;8.38;;;;;;;;;;4211582;34;20076;-71
2023/04/15 08:51:42;;;;;;;14.65;8.50;;;;;;;;;;4210771;34;20069;-73
2023/04/15 08:54:09;;;;;;;10.90;8.13;;;;;;;;;;4190903;34;20119;-71
2023/04/15 08:56:35;;;;;;;9.60;7.87;;;;;;;;;;4205304;34;20074;-73
2023/04/15 08:59:02;;;;;;;12.02;7.65;;;;;;;;;;4207175;34;20640;-74
2023/04/15 09:01:28;;;;;;;9.25;7.15;;;;;;;;;;4210072;34;20043;-73
2023/04/15 09:03:55;;;;;;;10.18;7.03;;;;;;;;;;4220830;34;20854;-72
2023/04/15 09:06:22;;;;;;;12.63;6.53;;;;;;;;;;4221425;33;20052;-72
2023/04/15 09:08:49;;;;;;;9.52;6.85;;;;;;;;;;4220148;34;20050;-80
2023/04/15 09:11:16;;;;;;;13.40;9.18;;;;;;;;;;4201830;34;20186;-76
2023/04/15 09:13:43;;;;;;;9.23;6.80;;;;;;;;;;4207454;34;20077;-73
2023/04/15 09:16:09;;;;;;;13.43;6.57;;;;;;;;;;4211811;34;20072;-73
2023/04/15 09:18:37;;;;;;;8.05;6.22;;;;;;;;;;4202490;34;20094;-72
2023/04/15 09:21:12;;;;;;;7.90;5.95;;;;;;;;;;4204056;34;20054;-71
2023/04/15 09:23:39;;;;;;;9.73;6.55;;;;;;;;;;4205504;34;20071;-73
2023/04/15 09:26:07;;;;;;;6.80;6.10;;;;;;;;;;4204389;34;20035;-73
2023/04/15 09:28:39;;;;;;;8.10;6.93;;;;;;;;;;4210002;34;20046;-73
2023/04/15 09:31:06;;;;;;;9.38;6.82;;;;;;;;;;4210042;34;20065;-74
2023/04/15 09:33:33;;;;;;;8.40;6.40;;;;;;;;;;4219939;33;20092;-74
2023/04/15 09:36:03;;;;;;;8.63;6.35;;;;;;;;;;4224136;33;20068;-75
2023/04/15 09:38:31;;;;;;;7.35;5.28;;;;;;;;;;4222035;33;20062;-73
2023/04/15 09:40:57;;;;;;;7.80;5.95;;;;;;;;;;4227233;33;20099;-74
2023/04/15 09:43:39;;;;;;;8.90;5.53;;;;;;;;;;4223697;33;20059;-74
2023/04/15 09:46:06;;;;;;;9.07;6.68;;;;;;;;;;4205794;34;20406;-74
2023/04/15 09:48:32;;;;;;;10.07;6.53;;;;;;;;;;4205254;34;20196;-75
2023/04/15 09:51:00;;;;;;;7.82;5.55;;;;;;;;;;4223414;33;20267;-74
2023/04/15 09:53:27;;;;;;;7.18;5.93;;;;;;;;;;4262516;33;21957;-75
2023/04/15 09:55:54;;;;;;;7.60;5.93;;;;;;;;;;4261080;33;20502;-75
2023/04/15 09:58:22;;;;;;;8.35;5.97;;;;;;;;;;4261574;33;20046;-76
2023/04/15 10:00:49;;;;;;;7.85;5.75;;;;;;;;;;4263383;33;20057;-75
2023/04/15 10:03:18;;;;;;;7.15;4.95;;;;;;;;;;4261374;33;20053;-74
2023/04/15 10:05:44;;;;;;;8.45;5.25;;;;;;;;;;4235401;33;20039;-75
2023/04/15 10:08:11;;;;;;;7.20;5.05;;;;;;;;;;4206196;34;20040;-74
2023/04/15 10:10:38;;;;;;;9.18;5.82;;;;;;;;;;4205557;34;20241;-74
2023/04/15 10:13:05;;;;;;;6.45;5.32;;;;;;;;;;4205800;34;20062;-73
2023/04/15 10:15:31;;;;;;;8.48;6.80;;;;;;;;;;4206502;34;20243;-72
2023/04/15 10:17:59;;;;;;;7.68;5.30;;;;;;;;;;4205230;34;20090;-73
2023/04/15 10:20:26;;;;;;;6.40;5.60;;;;;;;;;;4206458;34;20444;-75
2023/04/15 10:22:52;;;;;;;8.77;5.40;;;;;;;;;;4203426;34;20423;-73
2023/04/15 10:25:18;;;;;;;7.32;5.78;;;;;;;;;;4206649;34;20047;-73
2023/04/15 10:27:47;;;;;;;9.63;5.45;;;;;;;;;;4206572;34;20055;-74
2023/04/15 10:30:14;;;;;;;8.50;5.70;;;;;;;;;;4206293;34;20059;-73
2023/04/15 10:32:41;;;;;;;7.68;6.03;;;;;;;;;;4206101;34;20109;-76
2023/04/15 10:35:08;;;;;;;10.55;5.47;;;;;;;;;;4209250;34;20034;-73
2023/04/15 10:37:36;;;;;;;7.25;5.30;;;;;;;;;;4209489;34;20062;-73
2023/04/15 10:40:32;;;;;;;6.12;5.00;;;;;;;;;;4233816;33;20038;-73
2023/04/15 10:42:59;;;;;;;7.90;5.20;;;;;;;;;;4206878;34;20114;-74
2023/04/15 10:45:27;;;;;;;7.95;6.10;;;;;;;;;;4223745;33;20038;-74
2023/04/15 10:47:54;;;;;;;6.70;5.37;;;;;;;;;;4197212;34;20081;-72
2023/04/15 10:50:21;;;;;;;8.68;5.10;;;;;;;;;;4193267;34;20046;-75
2023/04/15 10:52:49;;;;;;;4.93;4.53;;;;;;;;;;4194845;34;20427;-72
2023/04/15 10:55:19;;;;;;;4.03;3.62;;;;;;;;;;4192912;34;20036;-73
2023/04/15 10:57:50;;;;;;;6.03;4.35;;;;;;;;;;4187105;34;20064;-72
2023/04/15 11:03:39;;;;;;;5.35;4.72;;;;;;;;;;4189442;34;20156;-75
2023/04/15 11:06:06;;;;;;;4.97;4.45;;;;;;;;;;4194097;34;20446;-73
2023/04/15 11:08:50;;;;;;;5.93;3.85;;;;;;;;;;4195339;34;20039;-73
2023/04/15 11:11:17;;;;;;;6.87;4.37;;;;;;;;;;4192292;34;20507;-73
2023/04/15 11:13:47;;;;;;;8.60;5.15;;;;;;;;;;4195620;34;20067;-72
2023/04/15 11:16:13;;;;;;;6.32;4.60;;;;;;;;;;4197782;34;20035;-73
2023/04/15 11:18:39;;;;;;;6.32;3.95;;;;;;;;;;4201112;33;20097;-73
2023/04/15 11:21:07;;;;;;;9.13;4.60;;;;;;;;;;4233553;33;20421;-75
2023/04/15 11:23:33;;;;;;;6.97;4.40;;;;;;;;;;4227185;33;20051;-74
2023/04/15 11:26:01;;;;;;;9.02;4.82;;;;;;;;;;4229204;33;20062;-73
2023/04/15 11:28:28;;;;;;;7.25;4.12;;;;;;;;;;4224359;33;20034;-73
2023/04/15 11:30:54;;;;;;;4.80;4.30;;;;;;;;;;4242840;33;20066;-74
2023/04/15 11:33:21;;;;;;;5.90;4.87;;;;;;;;;;4251027;33;20076;-76
2023/04/15 11:35:47;;;;;;;5.10;4.50;;;;;;;;;;4252418;33;20620;-73
2023/04/15 11:38:14;;;;;;;4.97;4.50;;;;;;;;;;4253848;33;20352;-73
2023/04/15 11:40:41;;;;;;;5.93;4.75;;;;;;;;;;4244793;33;20125;-74
2023/04/15 11:43:08;;;;;;;7.03;5.35;;;;;;;;;;4220655;33;20081;-73
2023/04/15 11:45:35;;;;;;;5.07;4.10;;;;;;;;;;4213754;33;20057;-74
2023/04/15 11:48:09;;;;;;;6.53;4.43;;;;;;;;;;4219751;33;20055;-74
2023/04/15 11:50:36;;;;;;;4.97;4.35;;;;;;;;;;4203302;34;20083;-74
2023/04/15 11:53:03;;;;;;;11.57;5.15;;;;;;;;;;4205699;34;20166;-75
2023/04/15 11:55:30;;;;;;;6.45;4.15;;;;;;;;;;4208374;34;20063;-74
2023/04/15 11:58:14;;;;;;;4.62;4.07;;;;;;;;;;4203118;34;20412;-74
2023/04/15 12:00:44;;;;;;;7.80;4.82;;;;;;;;;;4203923;34;20068;-73
2023/04/15 12:03:15;;;;;;;7.53;3.45;;;;;;;;;;4209582;34;20535;-75
2023/04/15 12:06:01;;;;;;;2.17;1.80;;;;;;;;;;4207654;34;20476;-73
2023/04/15 12:08:47;;;;;;;2.28;2.08;;;;;;;;;;4205570;34;20401;-73
2023/04/15 12:11:14;;;;;;;9.48;2.47;;;;;;;;;;4196349;34;20227;-73
2023/04/15 12:13:44;;;;;;;2.90;2.60;;;;;;;;;;4198547;34;20375;-73
2023/04/15 12:16:11;;;;;;;3.22;2.20;;;;;;;;;;4211013;34;20076;-72
2023/04/15 12:18:37;;;;;;;5.28;2.60;;;;;;;;;;4223162;33;20043;-72
2023/04/15 12:21:08;;;;;;;4.07;2.78;;;;;;;;;;4222453;33;20080;-72
2023/04/15 12:23:36;;;;;;;2.00;1.90;;;;;;;;;;4205602;34;20488;-74
2023/04/15 12:26:06;;;;;;;3.78;2.67;;;;;;;;;;4223230;34;20040;-72
2023/04/15 12:28:35;;;;;;;9.07;2.60;;;;;;;;;;4221326;34;20415;-75
2023/04/15 12:31:08;;;;;;;8.02;2.72;;;;;;;;;;4220557;34;20449;-76
2023/04/15 12:33:35;;;;;;;2.70;2.50;;;;;;;;;;4225924;33;20476;-73
2023/04/15 12:36:01;;;;;;;5.05;2.95;;;;;;;;;;4236624;33;20129;-73
2023/04/15 12:38:28;;;;;;;4.43;3.03;;;;;;;;;;4237751;33;20555;-72
2023/04/15 12:40:55;;;;;;;2.50;2.30;;;;;;;;;;4237564;33;20043;-72
2023/04/15 12:43:21;;;;;;;2.40;2.20;;;;;;;;;;4235554;33;20046;-72
2023/04/15 12:45:47;;;;;;;3.17;2.87;;;;;;;;;;4235241;33;20046;-71
2023/04/15 12:48:13;;;;;;;5.70;3.00;;;;;;;;;;4249141;33;20085;-72
2023/04/15 12:50:39;;;;;;;5.22;2.65;;;;;;;;;;4250423;33;20049;-71
2023/04/15 12:53:06;;;;;;;2.83;2.37;;;;;;;;;;4263305;33;20160;-71
2023/04/15 12:55:32;;;;;;;3.90;2.97;;;;;;;;;;4276739;33;20075;-71
2023/04/15 12:57:58;;;;;;;2.67;2.47;;;;;;;;;;4255060;33;20105;-71
2023/04/15 13:00:24;;;;;;;5.62;3.55;;;;;;;;;;4247712;33;20867;-74
2023/04/15 13:02:50;;;;;;;2.90;2.53;;;;;;;;;;4234421;33;20054;-71
2023/04/15 13:05:16;;;;;;;5.57;2.55;;;;;;;;;;4235975;33;20066;-73
2023/04/15 13:07:42;;;;;;;5.95;3.08;;;;;;;;;;4243174;33;20409;-76
2023/04/15 13:10:09;;;;;;;3.83;2.45;;;;;;;;;;4244503;33;20068;-73
2023/04/15 13:12:35;;;;;;;6.62;3.03;;;;;;;;;;4244626;33;20482;-71
2023/04/15 13:15:03;;;;;;;5.50;3.70;;;;;;;;;;4247804;33;20056;-70
2023/04/15 13:17:29;;;;;;;5.90;3.33;;;;;;;;;;4247530;33;20080;-71
2023/04/15 13:19:55;;;;;;;3.95;3.65;;;;;;;;;;4246116;33;20050;-78
2023/04/15 13:22:21;;;;;;;5.00;3.00;;;;;;;;;;4243579;33;20071;-70
2023/04/15 13:24:48;;;;;;;3.87;2.70;;;;;;;;;;4247243;33;20115;-72
2023/04/15 13:27:14;;;;;;;2.60;2.40;;;;;;;;;;4245521;33;20151;-71
2023/04/15 13:29:41;;;;;;;8.75;2.60;;;;;;;;;;4246783;33;20516;-73
2023/04/15 13:32:07;;;;;;;2.83;2.62;;;;;;;;;;4243961;33;20440;-70
2023/04/15 13:34:33;;;;;;;10.38;4.35;;;;;;;;;;4232642;33;20546;-72
2023/04/15 13:37:05;;;;;;;4.37;3.35;;;;;;;;;;4232774;33;20062;-71
2023/04/15 13:39:31;;;;;;;4.93;3.95;;;;;;;;;;4234285;33;20157;-70
2023/04/15 13:41:57;;;;;;;7.85;4.32;;;;;;;;;;4232904;33;20141;-73
2023/04/15 13:44:24;;;;;;;7.30;3.97;;;;;;;;;;4234608;33;20084;-72
2023/04/15 13:46:50;;;;;;;8.18;3.85;;;;;;;;;;4248418;33;20041;-71
2023/04/15 13:49:16;;;;;;;5.32;3.97;;;;;;;;;;4249441;33;20184;-71
2023/04/15 13:51:42;;;;;;;7.68;4.00;;;;;;;;;;4249375;33;20436;-73
2023/04/15 13:54:09;;;;;;;4.85;3.53;;;;;;;;;;4247428;33;20046;-72
2023/04/15 13:56:35;;;;;;;5.40;3.90;;;;;;;;;;4249987;33;20042;-72
2023/04/15 13:59:02;;;;;;;7.35;4.03;;;;;;;;;;4249389;33;20171;-71
2023/04/15 14:01:28;;;;;;;7.40;4.45;;;;;;;;;;4248285;33;20435;-72
2023/04/15 14:03:55;;;;;;;7.62;5.20;;;;;;;;;;4249340;33;20053;-74
2023/04/15 14:06:21;;;;;;;6.35;4.40;;;;;;;;;;4254330;33;20087;-71
2023/04/15 14:08:53;;;;;;;10.57;5.00;;;;;;;;;;4266760;33;20076;-73
2023/04/15 14:11:20;;;;;;;7.30;3.60;;;;;;;;;;4266711;33;20038;-72
2023/04/15 14:13:46;;;;;;;15.13;8.23;;;;;;;;;;4266630;33;20045;-75
2023/04/15 14:16:12;;;;;;;8.15;5.15;;;;;;;;;;4264998;33;20086;-77
2023/04/15 14:18:39;;;;;;;8.32;4.93;;;;;;;;;;4257246;33;20046;-72
2023/04/15 14:21:05;;;;;;;3.45;2.92;;;;;;;;;;4252573;33;20038;-72
2023/04/15 14:23:32;;;;;;;5.15;3.60;;;;;;;;;;4254217;33;20101;-75
2023/04/15 14:25:58;;;;;;;5.80;3.55;;;;;;;;;;4255732;33;20038;-73
2023/04/15 14:28:25;;;;;;;9.55;4.22;;;;;;;;;;4250552;33;20059;-74
2023/04/15 14:30:51;;;;;;;4.75;3.78;;;;;;;;;;4251466;33;20034;-72
2023/04/15 14:33:17;;;;;;;6.37;4.57;;;;;;;;;;4252079;33;20066;-75
2023/04/15 14:35:43;;;;;;;11.80;6.97;;;;;;;;;;4255401;33;20058;-72
2023/04/15 14:38:09;;;;;;;11.30;6.18;;;;;;;;;;4254390;33;20055;-74
2023/04/15 14:40:36;;;;;;;9.05;5.40;;;;;;;;;;4244390;33;20026;-75
2023/04/15 14:43:02;;;;;;;5.85;3.95;;;;;;;;;;4237350;33;20137;-74
2023/04/15 14:45:28;;;;;;;7.53;3.72;;;;;;;;;;4235532;33;21344;-74
2023/04/15 14:47:55;;;;;;;7.22;4.05;;;;;;;;;;4237292;33;20073;-73
2023/04/15 14:50:21;;;;;;;4.45;3.47;;;;;;;;;;4237523;33;20053;-71
2023/04/15 14:52:47;;;;;;;4.40;3.10;;;;;;;;;;4236222;33;20428;-77
2023/04/15 14:55:13;;;;;;;5.32;3.75;;;;;;;;;;4249851;33;20068;-72
2023/04/15 14:57:40;;;;;;;6.87;4.07;;;;;;;;;;4251733;33;20042;-71
2023/04/15 15:00:07;;;;;;;7.65;4.03;;;;;;;;;;4241096;33;20098;-71
2023/04/15 15:02:35;;;;;;;7.32;3.75;;;;;;;;;;4235980;33;20491;-72
2023/04/15 15:05:01;;;;;;;6.22;4.40;;;;;;;;;;4235255;33;20187;-72
2023/04/15 15:07:27;;;;;;;5.53;4.10;;;;;;;;;;4237043;33;20119;-71
2023/04/15 15:09:54;;;;;;;5.95;3.20;;;;;;;;;;4237770;33;20050;-72
2023/04/15 15:12:22;;;;;;;10.80;5.90;;;;;;;;;;4236032;33;20070;-74
2023/04/15 15:14:48;;;;;;;17.75;8.00;;;;;;;;;;4236880;33;20120;-77
2023/04/15 15:17:14;;;;;;;16.83;6.97;;;;;;;;;;4235027;33;20076;-72
2023/04/15 15:19:40;;;;;;;13.27;5.28;;;;;;;;;;4222150;33;20055;-71
2023/04/15 15:22:06;;;;;;;8.15;4.68;;;;;;;;;;4236050;33;20064;-72
2023/04/15 15:24:33;;;;;;;7.70;3.62;;;;;;;;;;4222600;33;20390;-72
2023/04/15 15:26:59;;;;;;;5.22;3.72;;;;;;;;;;4227012;33;20089;-76
2023/04/15 15:29:25;;;;;;;6.62;3.75;;;;;;;;;;4207776;34;20055;-70
2023/04/15 15:31:51;;;;;;;8.65;5.10;;;;;;;;;;4211418;34;20095;-71
2023/04/15 15:34:17;;;;;;;7.70;5.40;;;;;;;;;;4208484;34;20783;-71
2023/04/15 15:36:43;;;;;;;10.27;5.37;;;;;;;;;;4207418;34;20048;-72
2023/04/15 15:39:09;;;;;;;9.27;6.43;;;;;;;;;;4206292;34;20057;-73
2023/04/15 15:41:36;;;;;;;13.18;6.80;;;;;;;;;;4222134;34;20072;-71
2023/04/15 15:44:01;;;;;;;13.30;6.30;;;;;;;;;;4221837;34;20067;-72
2023/04/15 15:46:30;;;;;;;11.25;6.15;;;;;;;;;;4222268;34;20090;-69
2023/04/15 15:48:56;;;;;;;10.73;6.28;;;;;;;;;;4221240;34;20377;-76
2023/04/15 15:51:22;;;;;;;11.38;7.12;;;;;;;;;;4221546;34;20062;-71
2023/04/15 15:53:48;;;;;;;14.15;8.80;;;;;;;;;;4222086;34;20078;-72
2023/04/15 15:56:15;;;;;;;16.98;9.15;;;;;;;;;;4221958;34;20429;-70
2023/04/15 15:58:43;;;;;;;11.55;6.95;;;;;;;;;;4234238;33;20042;-71
2023/04/15 16:01:10;;;;;;;19.83;7.95;;;;;;;;;;4243351;33;20058;-71
2023/04/15 16:03:36;;;;;;;11.32;7.62;;;;;;;;;;4249520;33;20318;-70
2023/04/15 16:06:03;;;;;;;15.38;6.78;;;;;;;;;;4249750;33;20054;-71
2023/04/15 16:08:29;;;;;;;14.70;8.18;;;;;;;;;;4249929;33;20049;-72
2023/04/15 16:10:56;;;;;;;19.00;8.95;;;;;;;;;;4248616;33;20075;-75
2023/04/15 16:13:22;;;;;;;18.95;9.25;;;;;;;;;;4247721;33;20046;-73
2023/04/15 16:15:51;;;;;;;15.90;9.65;;;;;;;;;;4250348;33;20534;-70
2023/04/15 16:18:17;;;;;;;26.75;13.15;;;;;;;;;;4248685;33;20162;-71
2023/04/15 16:20:43;;;;;;;28.58;11.23;;;;;;;;;;4249330;33;20058;-71
2023/04/15 16:23:11;;;;;;;23.73;9.43;;;;;;;;;;4246098;33;20042;-70
2023/04/15 16:25:39;;;;;;;17.05;8.00;;;;;;;;;;4246836;33;20400;-70
2023/04/15 16:28:05;;;;;;;13.25;6.62;;;;;;;;;;4249128;33;20053;-70
2023/04/15 16:30:34;;;;;;;20.05;8.60;;;;;;;;;;4247876;33;20038;-70
2023/04/15 16:33:00;;;;;;;14.55;9.60;;;;;;;;;;4236702;33;20064;-72
2023/04/15 16:35:27;;;;;;;16.58;8.05;;;;;;;;;;4248055;33;20076;-72
2023/04/15 16:37:53;;;;;;;13.45;8.27;;;;;;;;;;4248278;33;20054;-71
2023/04/15 16:40:19;;;;;;;11.40;7.18;;;;;;;;;;4237829;33;20061;-71
2023/04/15 16:42:52;;;;;;;12.00;7.30;;;;;;;;;;4245315;33;20183;-71